Time;durP1;ratioP1;P1;durP2;ratioP2;P2;SDS_P1;SDS_P2;PMS_P1;PMS_P2;Temp;Humidity;BMP_temperature;BMP_pressure;BME280_temperature;BME280_humidity;BME280_pressure;Samples;Min_cycle;Max_cycle;Signal;HPM_P1;HPM_P2
2021/06/27 00:01:43;;;;;;;;;18.75;15.00;;;;;22.96;50.97;100899.66;5097309;27;45691;-68
2021/06/27 00:04:13;;;;;;;;;15.75;14.00;;;;;22.97;51.16;100906.63;5096958;27;46193;-67
2021/06/27 00:06:38;;;;;;;;;13.25;13.25;;;;;22.98;51.04;100913.63;5096850;27;45796;-62
2021/06/27 00:09:04;;;;;;;;;15.25;14.00;;;;;22.96;51.25;100913.69;5096822;27;45435;-65
2021/06/27 00:11:29;;;;;;;;;17.00;14.75;;;;;22.96;51.11;100918.16;5096951;27;45540;-62
2021/06/27 00:13:55;;;;;;;;;15.25;15.00;;;;;22.97;51.11;100914.56;5096402;27;45330;-68
2021/06/27 00:16:21;;;;;;;;;14.00;13.00;;;;;22.96;51.23;100903.13;5096628;27;45415;-67
2021/06/27 00:18:46;;;;;;;;;14.00;12.75;;;;;22.96;51.21;100903.13;5129803;27;45333;-66
2021/06/27 00:21:13;;;;;;;;;16.75;14.75;;;;;22.96;51.05;100903.13;5097098;27;45473;-63
2021/06/27 00:23:43;;;;;;;;;14.50;14.50;;;;;22.98;51.17;100916.25;5096599;27;46562;-67
2021/06/27 00:26:11;;;;;;;;;18.75;17.75;;;;;22.97;51.21;100918.03;5096424;27;45858;-62
2021/06/27 00:28:37;;;;;;;;;16.00;14.00;;;;;22.98;51.25;100924.19;5129698;27;45219;-64
2021/06/27 00:31:03;;;;;;;;;15.25;15.25;;;;;22.98;51.11;100932.13;5096769;27;45541;-66
2021/06/27 00:33:29;;;;;;;;;13.75;13.00;;;;;22.97;51.21;100946.28;5097501;27;46084;-63
2021/06/27 00:35:54;;;;;;;;;17.25;15.75;;;;;22.97;51.39;100949.75;5100027;27;45882;-66
2021/06/27 00:38:20;;;;;;;;;14.00;14.00;;;;;22.97;51.25;100938.34;5099815;27;45468;-66
2021/06/27 00:40:46;;;;;;;;;16.00;14.00;;;;;22.96;51.20;100934.00;5100031;27;45662;-58
2021/06/27 00:43:12;;;;;;;;;15.25;15.25;;;;;22.97;51.05;100935.72;5098651;27;46210;-57
2021/06/27 00:45:39;;;;;;;;;16.00;14.75;;;;;22.97;51.18;100930.41;5099714;27;45325;-57
2021/06/27 00:48:06;;;;;;;;;18.50;15.00;;;;;22.97;51.37;100938.34;5099749;27;45446;-58
2021/06/27 00:50:39;;;;;;;;;17.75;17.50;;;;;22.96;51.03;100931.38;5099916;27;45383;-60
2021/06/27 00:53:05;;;;;;;;;14.50;13.50;;;;;22.97;51.38;100941.00;5099401;27;46340;-62
2021/06/27 00:55:31;;;;;;;;;13.25;12.50;;;;;22.96;51.36;100940.13;5099609;27;45245;-68
2021/06/27 00:57:56;;;;;;;;;17.25;17.00;;;;;22.96;51.38;100931.38;5099778;27;45318;-59
2021/06/27 01:00:28;;;;;;;;;14.25;14.25;;;;;22.97;51.08;100933.91;5099769;27;45444;-65
2021/06/27 01:02:55;;;;;;;;;15.50;13.50;;;;;22.97;51.16;100935.72;5099543;27;45477;-56
2021/06/27 01:05:27;;;;;;;;;13.25;11.50;;;;;22.96;51.00;100923.44;5099474;27;45424;-58
2021/06/27 01:07:54;;;;;;;;;15.50;14.00;;;;;22.96;51.16;100886.44;5099246;27;45477;-61
2021/06/27 01:10:20;;;;;;;;;15.00;15.00;;;;;22.96;51.56;100875.88;5099624;27;45455;-62
2021/06/27 01:12:45;;;;;;;;;16.25;13.50;;;;;22.96;51.18;100881.16;5099538;27;45419;-61
2021/06/27 01:15:13;;;;;;;;;14.25;14.00;;;;;22.96;51.22;100889.91;5099320;27;45411;-63
2021/06/27 01:17:39;;;;;;;;;14.00;14.00;;;;;22.97;51.14;100893.41;5099351;27;45481;-58
2021/06/27 01:20:11;;;;;;;;;12.75;12.75;;;;;22.97;51.21;100893.41;5099553;27;45342;-61
2021/06/27 01:22:37;;;;;;;;;15.50;13.75;;;;;22.97;51.30;100885.50;5099069;27;46192;-62
2021/06/27 01:25:04;;;;;;;;;15.00;15.00;;;;;22.95;51.42;100884.72;5099154;27;45695;-58
2021/06/27 01:27:29;;;;;;;;;20.50;15.50;;;;;22.97;51.41;100896.91;5099136;27;45291;-67
2021/06/27 01:29:54;;;;;;;;;16.75;16.00;;;;;22.97;51.19;100904.00;5097916;27;45440;-63
2021/06/27 01:32:20;;;;;;;;;18.50;15.00;;;;;22.96;51.19;100903.13;5097564;27;46273;-66
2021/06/27 01:34:45;;;;;;;;;16.50;15.75;;;;;22.96;51.49;100891.72;5099366;27;45321;-67
2021/06/27 01:37:11;;;;;;;;;17.50;17.50;;;;;22.96;51.30;100886.44;5099179;27;45203;-64
2021/06/27 01:39:38;;;;;;;;;13.75;13.75;;;;;22.97;51.36;100885.50;5099227;27;45651;-63
2021/06/27 01:42:04;;;;;;;;;18.25;15.25;;;;;22.96;51.32;100879.34;5098710;27;45388;-60
2021/06/27 01:44:29;;;;;;;;;15.25;14.75;;;;;22.97;51.44;100888.13;5098346;27;45382;-57
2021/06/27 01:46:56;;;;;;;;;15.25;14.00;;;;;22.97;51.56;100885.50;5098884;27;45455;-67
2021/06/27 01:49:21;;;;;;;;;15.25;14.75;;;;;22.91;51.41;100872.66;5099088;27;45332;-62
2021/06/27 01:51:47;;;;;;;;;15.50;14.25;;;;;22.96;51.40;100870.56;5098945;27;45230;-63
2021/06/27 01:54:12;;;;;;;;;14.75;14.00;;;;;22.96;51.46;100862.66;5098763;27;45291;-57
2021/06/27 01:56:38;;;;;;;;;13.00;12.50;;;;;22.95;51.37;100859.13;5098694;27;45215;-58
2021/06/27 01:59:04;;;;;;;;;15.75;15.75;;;;;22.95;51.38;100848.56;5098795;27;45548;-62
2021/06/27 02:01:38;;;;;;;;;15.00;15.00;;;;;22.95;51.24;100853.03;5098022;27;45268;-60
2021/06/27 02:04:05;;;;;;;;;18.00;16.75;;;;;22.95;51.33;100859.13;5098579;27;45354;-67
2021/06/27 02:06:35;;;;;;;;;17.25;17.00;;;;;22.94;51.39;100852.16;5098569;27;45249;-62
2021/06/27 02:09:01;;;;;;;;;15.75;15.00;;;;;22.95;51.46;100850.38;5098532;27;45639;-64
2021/06/27 02:11:27;;;;;;;;;17.50;15.50;;;;;22.96;51.51;100838.84;5098182;27;46483;-58
2021/06/27 02:13:56;;;;;;;;;16.00;13.75;;;;;22.97;51.25;100829.97;5097001;27;45426;-66
2021/06/27 02:16:21;;;;;;;;;16.00;16.00;;;;;22.95;51.47;100832.72;5098457;27;45505;-64
2021/06/27 02:18:49;;;;;;;;;12.50;11.75;;;;;22.95;51.42;100831.88;5098859;27;45555;-66
2021/06/27 02:21:17;;;;;;;;;17.25;15.00;;;;;22.96;51.36;100823.00;5098471;27;48104;-62
2021/06/27 02:23:44;;;;;;;;;17.50;17.00;;;;;22.94;51.44;100804.59;5098219;27;45239;-68
2021/06/27 02:26:10;;;;;;;;;18.25;15.75;;;;;22.95;51.29;100792.22;5098394;27;45506;-67
2021/06/27 02:28:36;;;;;;;;;16.00;14.25;;;;;22.95;51.30;100790.41;5098469;27;45370;-67
2021/06/27 02:31:02;;;;;;;;;16.75;13.00;;;;;22.96;51.50;100792.13;5098119;27;45333;-65
2021/06/27 02:33:28;;;;;;;;;18.25;15.75;;;;;22.95;51.60;100773.72;5097887;27;45280;-68
2021/06/27 02:35:55;;;;;;;;;13.50;13.50;;;;;22.96;51.36;100775.44;5098143;27;45252;-67
2021/06/27 02:38:20;;;;;;;;;14.75;12.75;;;;;22.94;51.24;100772.88;5130777;27;45759;-67
2021/06/27 02:40:46;;;;;;;;;16.00;14.50;;;;;22.95;51.33;100773.72;5131188;27;45593;-62
2021/06/27 02:43:13;;;;;;;;;16.75;16.00;;;;;22.95;51.31;100769.28;5097953;27;45262;-65
2021/06/27 02:45:39;;;;;;;;;13.50;13.50;;;;;22.96;51.32;100764.84;5097924;27;45243;-66
2021/06/27 02:48:08;;;;;;;;;13.00;13.00;;;;;22.95;51.38;100758.69;5097973;27;45310;-68
2021/06/27 02:50:36;;;;;;;;;15.25;15.25;;;;;22.95;51.39;100761.34;5097634;27;46602;-68
2021/06/27 02:53:02;;;;;;;;;13.25;12.25;;;;;22.95;51.79;100752.59;5097884;27;45666;-67
2021/06/27 02:55:28;;;;;;;;;14.75;13.75;;;;;22.94;51.51;100748.25;5095740;27;45260;-65
2021/06/27 02:57:54;;;;;;;;;14.50;14.00;;;;;22.93;51.31;100755.31;5097933;27;45602;-68
2021/06/27 03:00:20;;;;;;;;;14.25;13.75;;;;;22.94;51.48;100753.53;5097787;27;46089;-68
2021/06/27 03:02:46;;;;;;;;;15.75;15.00;;;;;22.96;51.22;100756.94;5097721;27;45820;-64
2021/06/27 03:05:14;;;;;;;;;18.25;16.25;;;;;22.95;51.47;100749.94;5130894;27;45409;-68
2021/06/27 03:07:40;;;;;;;;;16.25;16.25;;;;;22.95;51.31;100742.00;5097679;27;45574;-67
2021/06/27 03:10:08;;;;;;;;;15.50;14.00;;;;;22.94;51.30;100746.44;5129891;27;47234;-67
2021/06/27 03:12:34;;;;;;;;;20.75;17.00;;;;;22.95;51.37;100758.69;5097283;27;45207;-63
2021/06/27 03:14:59;;;;;;;;;17.50;15.75;;;;;22.95;51.21;100752.59;5097518;27;45319;-61
2021/06/27 03:17:25;;;;;;;;;18.00;14.50;;;;;22.96;51.16;100754.28;5097727;27;45541;-64
2021/06/27 03:19:50;;;;;;;;;13.50;13.00;;;;;22.95;51.46;100745.50;5097484;27;46017;-61
2021/06/27 03:22:15;;;;;;;;;14.00;13.25;;;;;22.95;51.32;100745.50;5097197;27;45344;-67
2021/06/27 03:24:41;;;;;;;;;14.75;14.50;;;;;22.93;51.50;100747.38;5097375;27;45301;-68
2021/06/27 03:27:07;;;;;;;;;15.00;15.00;;;;;22.95;51.37;100756.06;5097733;27;45659;-67
2021/06/27 03:29:32;;;;;;;;;15.25;13.25;;;;;22.93;51.27;100750.03;5096871;27;45305;-68
2021/06/27 03:31:57;;;;;;;;;15.00;14.00;;;;;22.96;51.19;100749.00;5097093;27;45422;-66
2021/06/27 03:34:23;;;;;;;;;16.50;14.25;;;;;22.92;51.49;100742.22;5097532;27;45420;-53
2021/06/27 03:36:48;;;;;;;;;13.00;12.25;;;;;22.96;51.37;100741.06;5097694;27;45302;-68
2021/06/27 03:39:18;;;;;;;;;18.00;16.75;;;;;22.95;51.32;100736.72;5096868;27;46099;-63
2021/06/27 03:41:47;;;;;;;;;15.50;15.00;;;;;22.95;51.08;100732.28;5097104;27;45680;-67
2021/06/27 03:44:12;;;;;;;;;13.50;12.25;;;;;22.94;51.45;100711.25;5097014;27;45353;-67
2021/06/27 03:46:38;;;;;;;;;16.50;16.50;;;;;22.96;51.45;100725.22;5097289;27;45369;-67
2021/06/27 03:49:04;;;;;;;;;14.25;13.25;;;;;22.94;51.36;100740.31;5095510;27;47609;-68
2021/06/27 03:51:31;;;;;;;;;13.25;12.25;;;;;22.93;51.27;100747.38;5096806;27;45704;-68
2021/06/27 03:53:57;;;;;;;;;13.50;13.50;;;;;22.95;51.46;100764.00;5097072;27;45284;-67
2021/06/27 03:56:22;;;;;;;;;15.25;14.50;;;;;22.95;51.38;100757.88;5097486;27;45366;-68
2021/06/27 03:58:48;;;;;;;;;15.25;15.25;;;;;22.94;51.44;100759.66;5095513;27;45905;-68
2021/06/27 04:01:15;;;;;;;;;14.25;13.75;;;;;22.96;51.43;100764.84;5096896;27;45392;-68
2021/06/27 04:03:40;;;;;;;;;15.75;14.50;;;;;22.95;51.26;100765.81;5096927;27;45416;-68
2021/06/27 04:06:06;;;;;;;;;16.25;13.50;;;;;22.95;51.13;100765.81;5097110;27;45301;-66
2021/06/27 04:08:32;;;;;;;;;15.50;13.75;;;;;22.96;51.33;100762.22;5098009;27;46286;-66
2021/06/27 04:10:58;;;;;;;;;15.75;15.00;;;;;22.94;51.56;100756.19;5100392;27;45473;-66
2021/06/27 04:13:29;;;;;;;;;17.50;15.00;;;;;22.95;51.25;100752.59;5100755;27;45423;-67
2021/06/27 04:15:55;;;;;;;;;15.25;13.75;;;;;22.96;51.27;100754.28;5100854;27;45252;-53
2021/06/27 04:18:21;;;;;;;;;17.50;16.00;;;;;22.94;51.32;100756.19;5099962;27;46114;-58
2021/06/27 04:20:47;;;;;;;;;18.00;15.00;;;;;22.94;51.40;100756.19;5099011;27;45356;-62
2021/06/27 04:23:13;;;;;;;;;13.75;11.50;;;;;22.95;51.34;100752.59;5100281;27;45584;-63
2021/06/27 04:25:38;;;;;;;;;14.75;14.50;;;;;22.95;51.56;100755.22;5099210;27;45437;-65
2021/06/27 04:28:06;;;;;;;;;18.25;17.25;;;;;22.96;51.17;100751.63;5100029;27;46125;-67
2021/06/27 04:30:31;;;;;;;;;16.00;14.75;;;;;22.95;51.27;100752.59;5100210;27;45459;-65
2021/06/27 04:32:56;;;;;;;;;16.50;16.00;;;;;22.96;51.44;100754.28;5100574;27;45407;-60
2021/06/27 04:35:22;;;;;;;;;14.50;12.50;;;;;22.95;51.27;100757.88;5100506;27;45632;-65
2021/06/27 04:37:48;;;;;;;;;13.00;12.50;;;;;22.96;51.33;100754.28;5099856;27;45870;-65
2021/06/27 04:40:13;;;;;;;;;15.00;15.00;;;;;22.95;51.54;100752.59;5099713;27;45290;-66
2021/06/27 04:42:38;;;;;;;;;16.75;14.25;;;;;22.95;51.31;100757.88;5100152;27;45406;-64
2021/06/27 04:45:05;;;;;;;;;13.75;13.25;;;;;22.95;51.56;100756.06;5100290;27;45243;-64
2021/06/27 04:47:30;;;;;;;;;15.00;15.00;;;;;22.95;51.25;100749.94;5099694;27;46512;-55
2021/06/27 04:49:56;;;;;;;;;16.25;15.25;;;;;22.95;51.34;100758.69;5099948;27;45270;-59
2021/06/27 04:52:21;;;;;;;;;18.00;15.00;;;;;22.96;51.59;100754.28;5099816;27;45282;-68
2021/06/27 04:54:48;;;;;;;;;15.75;13.75;;;;;22.94;51.48;100748.25;5099923;27;45440;-68
2021/06/27 04:57:14;;;;;;;;;14.00;12.50;;;;;22.95;50.94;100758.69;5099594;27;45405;-68
2021/06/27 04:59:39;;;;;;;;;18.25;16.75;;;;;22.95;51.45;100752.59;5099459;27;45488;-67
2021/06/27 05:02:05;;;;;;;;;18.50;17.00;;;;;22.96;51.49;100754.28;5099576;27;45346;-68
2021/06/27 05:04:30;;;;;;;;;16.00;15.75;;;;;22.96;51.33;100756.94;5099820;27;45346;-54
2021/06/27 05:06:55;;;;;;;;;15.50;15.00;;;;;22.95;51.64;100752.59;5099671;27;45316;-58
2021/06/27 05:09:21;;;;;;;;;19.00;15.75;;;;;22.95;51.31;100760.50;5099339;27;45321;-67
2021/06/27 05:11:46;;;;;;;;;18.75;16.75;;;;;22.93;51.50;100752.66;5099602;27;45365;-68
2021/06/27 05:14:11;;;;;;;;;17.00;16.00;;;;;22.95;51.43;100756.06;5099669;27;45380;-67
2021/06/27 05:16:37;;;;;;;;;16.50;14.50;;;;;22.94;51.54;100750.88;5099244;27;45341;-58
2021/06/27 05:19:02;;;;;;;;;16.50;15.25;;;;;22.96;51.49;100749.00;5098557;27;45259;-63
2021/06/27 05:21:27;;;;;;;;;18.25;17.50;;;;;22.96;51.42;100754.28;5099758;27;45291;-68
2021/06/27 05:23:53;;;;;;;;;16.75;14.50;;;;;22.93;51.40;100743.91;5099361;27;45608;-57
2021/06/27 05:26:18;;;;;;;;;15.25;14.50;;;;;22.94;51.45;100741.16;5097683;27;48449;-66
2021/06/27 05:28:43;;;;;;;;;19.75;16.25;;;;;22.96;51.48;100744.53;5098935;27;45419;-67
2021/06/27 05:31:09;;;;;;;;;15.75;15.75;;;;;22.95;51.49;100739.38;5099277;27;45330;-67
2021/06/27 05:33:34;;;;;;;;;17.25;15.75;;;;;22.95;51.62;100742.84;5099434;27;45350;-67
2021/06/27 05:35:59;;;;;;;;;16.00;15.50;;;;;22.93;51.38;100754.47;5099218;27;45989;-47
2021/06/27 05:38:25;;;;;;;;;16.25;15.25;;;;;22.96;51.51;100756.94;5099166;27;45255;-66
2021/06/27 05:40:51;;;;;;;;;19.00;16.00;;;;;22.94;51.54;100751.72;5097866;27;45445;-62
2021/06/27 05:43:16;;;;;;;;;16.00;16.00;;;;;22.96;51.43;100755.13;5099311;27;45547;-67
2021/06/27 05:45:42;;;;;;;;;16.25;16.25;;;;;22.95;51.50;100748.13;5098889;27;45931;-64
2021/06/27 05:48:07;;;;;;;;;17.50;15.50;;;;;22.95;51.54;100744.66;5098778;27;45336;-64
2021/06/27 05:50:33;;;;;;;;;18.25;17.25;;;;;22.95;51.43;100747.31;5097556;27;45403;-58
2021/06/27 05:52:58;;;;;;;;;16.50;16.00;;;;;22.95;51.29;100744.66;5099403;27;45431;-65
2021/06/27 05:55:23;;;;;;;;;14.75;14.25;;;;;22.97;51.51;100745.41;5098626;27;46337;-61
2021/06/27 05:57:49;;;;;;;;;15.50;13.25;;;;;22.96;51.47;100746.34;5098698;27;45476;-61
2021/06/27 06:00:15;;;;;;;;;18.25;15.75;;;;;22.96;51.33;100743.72;5098922;27;45326;-60
2021/06/27 06:02:40;;;;;;;;;15.25;15.25;;;;;22.96;51.55;100741.06;5098917;27;45674;-57
2021/06/27 06:05:06;;;;;;;;;17.25;16.25;;;;;22.96;51.52;100743.72;5098603;27;45940;-55
2021/06/27 06:07:31;;;;;;;;;19.75;16.75;;;;;22.96;51.43;100752.47;5098558;27;45409;-51
2021/06/27 06:09:57;;;;;;;;;14.50;14.50;;;;;22.96;51.49;100754.28;5098838;27;45418;-66
2021/06/27 06:12:22;;;;;;;;;16.00;16.00;;;;;22.95;51.75;100749.94;5098740;27;45667;-55
2021/06/27 06:14:47;;;;;;;;;16.25;14.50;;;;;22.96;51.68;100751.63;5098032;27;50085;-68
2021/06/27 06:17:13;;;;;;;;;15.75;15.75;;;;;22.95;51.64;100753.41;5098221;27;45325;-67
2021/06/27 06:19:40;;;;;;;;;16.00;14.25;;;;;22.97;51.29;100755.97;5098337;27;45233;-67
2021/06/27 06:22:05;;;;;;;;;16.25;14.75;;;;;22.97;51.46;100750.69;5098594;27;45250;-67
2021/06/27 06:24:31;;;;;;;;;14.00;14.00;;;;;22.95;51.57;100753.41;5098406;27;46481;-62
2021/06/27 06:26:56;;;;;;;;;17.75;16.75;;;;;22.97;51.52;100748.06;5098192;27;45296;-61
2021/06/27 06:29:21;;;;;;;;;14.00;14.00;;;;;22.97;51.64;100750.69;5098355;27;45348;-65
2021/06/27 06:31:47;;;;;;;;;14.75;14.75;;;;;22.95;51.77;100748.13;5097226;27;45347;-67
2021/06/27 06:34:12;;;;;;;;;17.75;17.00;;;;;22.97;51.77;100755.97;5096742;27;47070;-68
2021/06/27 06:36:38;;;;;;;;;17.00;16.25;;;;;22.96;51.62;100746.34;5098086;27;45377;-67
2021/06/27 06:39:04;;;;;;;;;15.25;14.00;;;;;22.97;51.83;100742.75;5097970;27;45476;-59
2021/06/27 06:41:30;;;;;;;;;14.00;14.00;;;;;22.96;51.52;100749.81;5114387;27;45448;-63
2021/06/27 06:43:55;;;;;;;;;19.25;15.75;;;;;22.98;51.44;100747.09;5097743;27;46475;-67
2021/06/27 06:46:21;;;;;;;;;17.25;15.25;;;;;22.97;51.45;100751.53;5097764;27;45311;-68
2021/06/27 06:48:46;;;;;;;;;15.75;15.00;;;;;22.97;51.63;100755.97;5096550;27;45336;-64
2021/06/27 06:51:11;;;;;;;;;15.25;14.25;;;;;22.99;51.53;100756.69;5098134;27;45599;-59
2021/06/27 06:53:37;;;;;;;;;19.00;16.00;;;;;22.99;51.57;100761.97;5097560;27;46123;-67
2021/06/27 06:56:02;;;;;;;;;17.50;16.50;;;;;22.99;51.30;100770.78;5131267;27;45314;-64
2021/06/27 06:58:31;;;;;;;;;16.75;14.75;;;;;22.98;51.64;100762.97;5097767;27;45337;-67
2021/06/27 07:00:57;;;;;;;;;16.00;15.75;;;;;22.99;51.57;100764.63;5097939;27;45611;-67
2021/06/27 07:03:23;;;;;;;;;16.75;15.00;;;;;22.99;51.64;100761.97;5097634;27;46035;-68
2021/06/27 07:05:49;;;;;;;;;14.00;13.50;;;;;22.97;51.54;100762.09;5097631;27;45926;-57
2021/06/27 07:08:14;;;;;;;;;16.00;16.00;;;;;23.00;51.70;100761.91;5096466;27;45305;-53
2021/06/27 07:10:39;;;;;;;;;13.75;13.75;;;;;23.00;51.48;100769.84;5098104;27;45386;-67
2021/06/27 07:13:05;;;;;;;;;14.25;13.75;;;;;23.01;51.48;100762.72;5097407;27;46095;-50
2021/06/27 07:15:30;;;;;;;;;17.50;15.75;;;;;23.00;51.70;100761.03;5097682;27;45418;-68
2021/06/27 07:17:56;;;;;;;;;14.75;13.75;;;;;23.00;51.66;100761.91;5097518;27;45423;-68
2021/06/27 07:20:21;;;;;;;;;16.50;15.50;;;;;23.00;51.43;100756.63;5097623;27;45581;-60
2021/06/27 07:22:46;;;;;;;;;16.25;15.00;;;;;23.00;51.37;100758.41;5097271;27;45879;-61
2021/06/27 07:25:12;;;;;;;;;14.00;14.00;;;;;23.01;51.63;100768.03;5097266;27;45259;-48
2021/06/27 07:27:38;;;;;;;;;16.00;15.00;;;;;22.99;51.82;100757.56;5097332;27;45319;-67
2021/06/27 07:30:07;;;;;;;;;17.00;15.00;;;;;23.02;51.48;100767.06;5097728;27;45569;-68
2021/06/27 07:32:34;;;;;;;;;15.25;13.25;;;;;23.01;51.41;100762.72;5097423;27;45427;-68
2021/06/27 07:34:59;;;;;;;;;14.25;13.00;;;;;23.02;51.58;100756.50;5097225;27;45388;-67
2021/06/27 07:37:24;;;;;;;;;17.25;15.00;;;;;22.98;51.57;100747.94;5097291;27;45381;-67
2021/06/27 07:39:50;;;;;;;;;14.00;13.50;;;;;23.03;51.41;100760.84;5097117;27;45325;-65
2021/06/27 07:42:15;;;;;;;;;17.25;15.25;;;;;23.03;51.61;100752.91;5096633;27;46295;-51
2021/06/27 07:44:41;;;;;;;;;13.50;12.00;;;;;23.02;51.31;100748.56;5095729;27;45515;-48
2021/06/27 07:47:06;;;;;;;;;14.75;14.00;;;;;23.01;51.27;100739.81;5097200;27;45420;-50
2021/06/27 07:49:31;;;;;;;;;14.50;14.50;;;;;23.05;51.54;100742.22;5096482;27;45312;-68
2021/06/27 07:51:57;;;;;;;;;17.00;13.75;;;;;23.04;51.53;100736.09;5096792;27;46021;-68
2021/06/27 07:54:22;;;;;;;;;15.25;15.25;;;;;23.03;51.41;100739.69;5096945;27;45354;-67
2021/06/27 07:56:47;;;;;;;;;16.75;15.00;;;;;23.05;51.33;100726.38;5097157;27;45294;-67
2021/06/27 07:59:13;;;;;;;;;14.00;14.00;;;;;23.05;51.41;100734.28;5130306;27;45374;-67
2021/06/27 08:01:39;;;;;;;;;17.50;14.75;;;;;23.05;51.56;100734.28;5096786;27;47117;-68
2021/06/27 08:04:04;;;;;;;;;16.50;15.50;;;;;23.05;51.40;100726.38;5095745;27;45638;-68
2021/06/27 08:06:30;;;;;;;;;16.25;14.00;;;;;23.04;51.38;100725.53;5096873;27;45207;-68
2021/06/27 08:08:55;;;;;;;;;14.50;13.00;;;;;23.04;51.41;100720.25;5097015;27;45278;-68
2021/06/27 08:11:20;;;;;;;;;14.25;12.75;;;;;23.05;51.38;100715.78;5096728;27;45422;-68
2021/06/27 08:13:46;;;;;;;;;17.50;13.50;;;;;23.05;51.23;100721.06;5096606;27;45388;-68
2021/06/27 08:16:11;;;;;;;;;17.00;14.00;;;;;23.07;51.29;100719.19;5096858;27;45370;-68
2021/06/27 08:18:36;;;;;;;;;12.50;12.50;;;;;23.06;51.30;100723.63;5097350;27;45553;-67
2021/06/27 08:21:02;;;;;;;;;14.75;13.00;;;;;23.06;51.39;100722.78;5096551;27;45995;-68
2021/06/27 08:23:27;;;;;;;;;14.50;13.00;;;;;23.04;51.20;100720.25;5096750;27;45453;-55
2021/06/27 08:25:52;;;;;;;;;14.00;14.00;;;;;23.06;51.29;100728.91;5096866;27;45302;-64
2021/06/27 08:28:18;;;;;;;;;16.50;14.25;;;;;23.07;51.53;100727.09;5096848;27;45713;-68
2021/06/27 08:30:43;;;;;;;;;17.75;16.50;;;;;23.07;51.52;100727.09;5096554;27;46280;-65
2021/06/27 08:33:09;;;;;;;;;18.00;15.00;;;;;23.08;51.47;100727.03;5096487;27;45325;-52
2021/06/27 08:35:35;;;;;;;;;13.50;11.75;;;;;23.07;51.42;100733.25;5096872;27;45645;-58
2021/06/27 08:38:00;;;;;;;;;13.00;13.00;;;;;23.08;51.38;100744.66;5096647;27;45563;-68
2021/06/27 08:40:26;;;;;;;;;16.00;15.25;;;;;23.08;50.98;100748.16;5096135;27;46262;-64
2021/06/27 08:42:52;;;;;;;;;5.75;5.75;;;;;23.09;51.35;100751.66;5096364;27;45303;-55
2021/06/27 08:45:18;;;;;;;;;16.25;14.75;;;;;23.09;51.49;100755.16;5096426;27;45332;-68
2021/06/27 08:47:45;;;;;;;;;14.50;14.25;;;;;23.09;51.33;100756.94;5096768;27;45492;-61
2021/06/27 08:50:14;;;;;;;;;12.25;12.25;;;;;23.09;51.46;100763.09;5096074;27;45321;-65
2021/06/27 08:52:43;;;;;;;;;13.25;12.75;;;;;23.09;51.21;100751.66;5096458;27;45341;-57
2021/06/27 08:55:09;;;;;;;;;13.50;13.00;;;;;23.10;51.71;100758.63;5097815;27;45333;-50
2021/06/27 08:57:35;;;;;;;;;16.00;13.25;;;;;23.09;51.47;100759.56;5100103;27;45469;-62
2021/06/27 09:00:02;;;;;;;;;14.25;13.25;;;;;23.10;51.16;100762.09;5099594;27;45367;-59
2021/06/27 09:02:29;;;;;;;;;15.25;13.50;;;;;23.07;51.29;100751.75;5099515;27;45337;-65
2021/06/27 09:04:54;;;;;;;;;14.75;13.75;;;;;23.08;51.54;100752.59;5099710;27;46014;-65
2021/06/27 09:07:34;;;;;;;;;14.50;13.25;;;;;23.10;51.35;100762.09;5099796;27;45785;-67
2021/06/27 09:10:23;;;;;;;;;15.00;13.25;;;;;23.10;51.27;100762.09;5099142;27;46016;-68
2021/06/27 09:12:55;;;;;;;;;15.75;14.00;;;;;23.10;51.45;100762.09;5099389;27;45879;-62
2021/06/27 09:15:38;;;;;;;;;12.50;12.50;;;;;23.10;51.50;100771.84;5099452;27;45306;-65
2021/06/27 09:18:13;;;;;;;;;12.25;12.25;;;;;23.08;51.42;100761.38;5099622;27;45183;-68
2021/06/27 09:20:39;;;;;;;;;15.25;12.75;;;;;23.09;51.38;100765.72;5099477;27;45406;-66
2021/06/27 09:23:05;;;;;;;;;18.00;16.00;;;;;23.09;51.34;100765.72;5099275;27;45334;-66
2021/06/27 09:25:32;;;;;;;;;15.75;15.50;;;;;23.07;51.30;100762.34;5099462;27;45398;-64
2021/06/27 09:28:02;;;;;;;;;16.00;15.00;;;;;23.09;51.47;100765.72;5099570;27;45263;-65
2021/06/27 09:30:29;;;;;;;;;15.75;13.25;;;;;23.08;51.49;100774.59;5097837;27;47459;-52
2021/06/27 09:33:04;;;;;;;;;14.25;14.25;;;;;23.09;51.58;100770.16;5099076;27;45189;-58
2021/06/27 09:35:45;;;;;;;;;16.75;16.75;;;;;23.09;51.57;100771.00;5099231;27;45191;-65
2021/06/27 09:38:31;;;;;;;;;16.75;16.75;;;;;23.09;51.90;100776.31;5099296;27;45441;-48
2021/06/27 09:41:03;;;;;;;;;15.50;15.50;;;;;23.09;51.67;100776.31;5098979;27;47414;-48
2021/06/27 09:43:30;;;;;;;;;15.75;15.25;;;;;23.09;51.74;100778.09;5098908;27;45339;-57
2021/06/27 09:45:59;;;;;;;;;12.25;12.25;;;;;23.09;51.64;100780.72;5099162;27;45373;-64
2021/06/27 09:48:25;;;;;;;;;10.50;10.50;;;;;23.09;51.70;100783.38;5099199;27;45288;-61
2021/06/27 09:50:51;;;;;;;;;18.75;16.00;;;;;23.10;51.74;100790.34;5098871;27;45355;-51
2021/06/27 09:53:47;;;;;;;;;15.50;15.50;;;;;23.10;51.54;100793.81;5098889;27;45433;-52
2021/06/27 09:56:14;;;;;;;;;14.75;14.50;;;;;23.10;51.94;100788.53;5099304;27;45279;-49
2021/06/27 09:58:53;;;;;;;;;16.75;15.50;;;;;23.10;51.78;100796.47;5099309;27;45631;-53
2021/06/27 10:01:22;;;;;;;;;16.25;14.50;;;;;23.10;51.86;100801.75;5128191;27;46197;-58
2021/06/27 10:03:57;;;;;;;;;16.75;14.25;;;;;23.09;51.88;100800.09;5098649;27;45439;-60
2021/06/27 10:06:25;;;;;;;;;17.25;17.25;;;;;23.08;51.67;100806.34;5097318;27;45462;-61
2021/06/27 10:08:50;;;;;;;;;14.00;14.00;;;;;23.10;51.99;100804.41;5098829;27;45483;-54
2021/06/27 10:11:23;;;;;;;;;14.25;13.75;;;;;23.11;51.48;100811.38;5098567;27;45487;-56
2021/06/27 10:13:51;;;;;;;;;12.50;12.50;;;;;23.12;51.80;100818.38;5098428;27;45452;-52
2021/06/27 10:16:27;;;;;;;;;13.25;13.25;;;;;23.11;51.83;100811.38;5098669;27;45380;-56
2021/06/27 10:18:54;;;;;;;;;17.00;16.25;;;;;23.12;51.80;100815.72;5098593;27;45587;-52
2021/06/27 10:21:20;;;;;;;;;16.00;16.00;;;;;23.08;51.87;100803.69;5098319;27;46228;-64
2021/06/27 10:23:46;;;;;;;;;19.00;17.00;;;;;23.11;51.73;100816.69;5098381;27;45512;-57
2021/06/27 10:26:15;;;;;;;;;14.50;14.50;;;;;23.13;51.65;100819.25;5098871;27;45284;-65
2021/06/27 10:28:40;;;;;;;;;16.50;14.50;;;;;23.13;51.72;100827.16;5097534;27;45532;-56
2021/06/27 10:31:06;;;;;;;;;15.00;14.75;;;;;23.14;51.88;100826.22;5098231;27;46017;-60
2021/06/27 10:33:32;;;;;;;;;14.50;14.50;;;;;23.14;51.78;100827.06;5096742;27;45481;-60
2021/06/27 10:35:58;;;;;;;;;14.25;13.25;;;;;23.14;51.91;100826.22;5098291;27;45472;-65
2021/06/27 10:38:28;;;;;;;;;17.50;17.50;;;;;23.15;51.95;100834.03;5098158;27;45491;-54
2021/06/27 10:40:56;;;;;;;;;12.75;12.75;;;;;23.15;52.04;100833.22;5097875;27;47051;-68
2021/06/27 10:43:22;;;;;;;;;16.50;14.50;;;;;23.15;51.95;100834.03;5096589;27;45366;-64
2021/06/27 10:45:48;;;;;;;;;19.50;16.50;;;;;23.15;51.82;100831.41;5098001;27;45275;-67
2021/06/27 10:48:32;;;;;;;;;14.75;14.75;;;;;23.15;51.82;100834.03;5098502;27;45525;-61
2021/06/27 10:50:58;;;;;;;;;17.75;15.75;;;;;23.17;51.97;100834.78;5097765;27;45509;-61
2021/06/27 10:53:24;;;;;;;;;9.25;8.00;;;;;23.13;52.04;100838.56;5097762;27;45239;-65
2021/06/27 10:55:50;;;;;;;;;13.25;13.25;;;;;23.17;51.48;100839.22;5097845;27;45235;-68
2021/06/27 10:58:17;;;;;;;;;15.25;15.25;;;;;23.16;51.89;100843.66;5098395;27;45369;-65
2021/06/27 11:03:22;;;;;;;;;14.25;14.25;;;;;23.16;51.92;100834.88;5097618;27;45381;-67
2021/06/27 11:05:47;;;;;;;;;13.25;13.00;;;;;23.15;51.82;100834.03;5096418;27;45241;-67
2021/06/27 11:08:14;;;;;;;;;15.25;15.00;;;;;23.16;51.78;100837.50;5097938;27;45229;-68
2021/06/27 11:10:40;;;;;;;;;17.25;15.00;;;;;23.14;51.73;100835.00;5096193;27;47111;-67